Date,TemperatureHighF,TemperatureAvgF,TemperatureLowF,DewpointHighF,DewpointAvgF,DewpointLowF,HumidityHigh,HumidityAvg,HumidityLow,PressureMaxIn,PressureMinIn,WindSpeedMaxMPH,WindSpeedAvgMPH,GustSpeedMaxMPH,PrecipitationSumIn
2013-1-1,45.3,42.9,39.9,32.0,28.9,24.2,67,58,48,30.03,29.91,10,4,16,0.00
2013-1-2,40.0,35.8,32.1,30.0,20.7,14.3,68,54,44,30.24,30.00,13,6,21,0.00
2013-1-3,39.4,33.7,29.8,24.1,19.1,14.4,64,55,47,30.26,30.15,7,3,13,0.10
2013-1-4,44.2,37.9,33.4,25.3,22.5,21.5,66,54,42,30.21,30.10,16,8,23,0.02
2013-1-5,45.0,39.9,35.5,32.1,24.1,21.0,73,53,44,30.38,30.15,15,6,21,0.01
2013-1-6,51.1,44.9,38.0,33.8,31.4,29.8,79,60,45,30.19,30.01,12,4,17,0.00
2013-1-7,46.5,43.6,37.8,32.4,28.8,26.9,67,56,48,30.44,30.15,13,6,17,0.00
2013-1-8,54.1,43.5,34.2,37.9,32.9,27.6,83,67,49,30.42,30.35,9,3,14,0.00
2013-1-9,53.6,45.7,38.1,44.4,37.9,32.8,82,74,46,30.38,30.22,15,3,23,0.00
2013-1-10,54.6,49.8,44.5,34.8,31.3,28.8,59,49,39,30.59,30.38,12,5,17,0.00
2013-1-11,46.8,44.1,40.7,43.3,36.7,30.7,93,76,58,30.51,30.09,7,3,9,0.00
2013-1-12,53.9,46.9,43.3,47.2,44.0,41.4,95,90,77,30.17,30.09,6,2,9,0.01
2013-1-13,54.2,49.1,43.1,53.1,48.0,41.8,97,96,95,30.14,29.97,7,2,10,0.00
2013-1-14,62.1,55.1,41.6,59.6,48.1,36.1,100,78,60,30.30,29.93,17,6,25,0.00
2013-1-15,42.0,40.0,36.3,39.7,37.4,34.2,95,90,83,30.35,30.15,10,5,16,0.00
2013-1-16,43.8,39.3,35.5,40.8,36.8,33.4,93,90,86,30.16,29.85,12,4,15,0.02
2013-1-17,46.8,43.4,40.9,41.8,34.1,28.8,93,70,54,30.13,29.96,10,4,14,0.02
2013-1-18,41.2,36.3,33.5,31.0,19.2,9.9,70,51,35,30.49,30.02,18,8,24,0.03
2013-1-19,53.3,41.7,34.1,31.9,28.1,22.5,73,59,43,30.42,29.97,13,9,20,0.02
2013-1-20,58.6,47.7,39.4,35.1,25.8,12.3,65,45,22,30.08,29.82,19,9,31,0.00
2013-1-21,47.1,37.5,31.9,29.9,20.7,12.8,59,51,40,30.10,29.78,18,7,31,0.00
2013-1-22,31.7,22.3,18.7,13.7,1.0,-2.6,50,39,32,30.30,29.92,20,13,31,0.00
2013-1-23,27.6,21.9,17.0,10.7,3.1,0.9,58,44,34,30.36,30.15,14,7,19,0.00
2013-1-24,27.5,22.9,17.6,17.5,10.0,2.7,92,60,35,30.52,30.09,17,8,29,0.00
2013-1-25,24.0,22.2,20.2,18.4,8.9,1.6,83,58,40,30.51,30.08,9,5,18,0.00
2013-1-26,34.4,29.8,24.0,25.3,21.2,18.1,79,70,58,30.43,30.08,12,4,17,0.01
2013-1-27,38.8,33.3,29.7,24.4,20.4,18.6,76,59,48,30.60,30.43,7,4,13,0.03
2013-1-28,48.3,38.5,33.0,42.7,33.2,22.1,91,81,63,30.51,30.04,12,5,16,0.27
2013-1-29,68.9,56.2,46.4,55.2,48.7,42.4,88,77,60,30.12,29.97,8,3,13,0.00
2013-1-30,70.4,63.7,58.0,62.9,58.2,51.9,96,83,69,29.97,29.20,18,8,27,0.64
2013-1-31,66.1,45.1,33.3,62.3,29.0,14.6,93,54,39,29.92,29.13,28,16,37,0.27